Zapolyarye — UBEF5 — position and weather

sailwx.info

Track history (hours):
 
Tides and Currents Weather Stations Pressure Air Temp Water Temp Dewpoint Dewpoint Depression Visibility Wind Speed Wind Dir Waves Ship Positions

Zapolyarye

Last reported at 2015-Mar-25 18:00 UTC. Time now 2015-Apr-01 05:51 UTC.
Position N 71°06' E 029°24'.

Length 181 m; draft 6.8 m.

Type: Cargo ship. MMSI: 273338310.

Wind from 190 at 6 knots

Waves 1.0 meters (3 feet), 2 second period

Barometer 1015.2 mb
Air temperature -3.0 ° C
Visibility: greater than 10.8 NM
Water temperature 3.0 ° C

Date/timePositionNaut miles runAvg speedWind from/ knotsBaromVisibWave heightAir tempDewpointWater temp
2015-Mar-25 18:00N 71°06' E 029°24'16113.4 190 / 61015.210.8 1.0-3.0 3.0
2015-Mar-25 06:00N 71°06' E 021°06'45812.7 200 / 191011.9 5.4 1.5-1.0 5.0
2015-Mar-23 18:00N 65°30' E 007°06'15512.9 340 / 23992.2 5.4 2.0 5.0 6.0
2015-Mar-23 06:00N 63°12' E 004°24'17414.5 200 / 25990.0 5.4 2.0 7.0 7.0
2015-Mar-22 18:00N 60°18' E 004°06'17714.7 200 / 191013.5 0.5 1.5 7.0 6.0
2015-Mar-22 06:00N 57°24' E 003°06'19311.7 230 / 191028.010.8 1.5 5.0 6.0
2015-Mar-21 13:33N 54°29' E 000°43'1110.7
2015-Mar-21 12:34N 54°19' E 000°37'9 9.2
2015-Mar-21 11:33N 54°10' E 000°33'8 7.6
2015-Mar-21 10:34N 54°03' E 000°29'8 8.4
2015-Mar-21 09:33N 53°55' E 000°24'1312.7
2015-Mar-21 08:33N 53°42' E 000°23'1211.9
2015-Mar-21 07:33N 53°32' E 000°11'1313.5
2015-Mar-21 06:33N 53°38' W 000°09'8 7.7
2015-Mar-21 05:34N 53°45' W 000°16'0 0.3
2015-Mar-21 04:33N 53°44' W 000°16'0 0.0
2015-Mar-21 03:33N 53°44' W 000°16'0 0.0
2015-Mar-21 02:33N 53°44' W 000°16'0 0.0
2015-Mar-21 01:33N 53°44' W 000°16'0 0.0
2015-Mar-21 00:33N 53°44' W 000°16'0 0.0
2015-Mar-20 23:33N 53°44' W 000°16'0 0.0
2015-Mar-20 22:33N 53°44' W 000°16'0 0.0
2015-Mar-20 21:30N 53°44' W 000°16'0 0.0
2015-Mar-20 20:33N 53°44' W 000°16'0 0.0
2015-Mar-20 19:33N 53°44' W 000°16'0 0.0
2015-Mar-20 18:33N 53°44' W 000°16'0 0.0
2015-Mar-20 17:33N 53°44' W 000°16'0 0.0
2015-Mar-20 16:33N 53°44' W 000°16'0 0.0
2015-Mar-20 15:33N 53°44' W 000°16'0 0.0
2015-Mar-20 14:33N 53°44' W 000°16'0 0.0
2015-Mar-20 13:33N 53°44' W 000°16'0 0.0
2015-Mar-20 12:33N 53°44' W 000°16'0 0.0
2015-Mar-20 11:33N 53°44' W 000°16'0 0.0
2015-Mar-20 10:33N 53°44' W 000°16'0 0.0
2015-Mar-20 09:33N 53°44' W 000°16'0 0.0
2015-Mar-20 08:34N 53°44' W 000°16'0 0.0
2015-Mar-20 07:33N 53°44' W 000°16'0 0.0
2015-Mar-20 06:30N 53°44' W 000°16'0 0.0
2015-Mar-20 05:30N 53°44' W 000°16'0 0.0
2015-Mar-20 04:33N 53°44' W 000°16'0 0.0
2015-Mar-20 03:33N 53°44' W 000°16'0 0.0
2015-Mar-20 02:30N 53°44' W 000°16'0 0.0
2015-Mar-20 01:33N 53°44' W 000°16'0 0.0
2015-Mar-20 00:33N 53°44' W 000°16'0 0.0
2015-Mar-19 23:33N 53°44' W 000°16'0 0.0
2015-Mar-19 22:33N 53°44' W 000°16'0 0.0
2015-Mar-19 21:33N 53°44' W 000°16'0 0.0
2015-Mar-19 20:33N 53°44' W 000°16'0 0.0
2015-Mar-19 19:33N 53°44' W 000°16'0 0.0
2015-Mar-19 18:33N 53°44' W 000°16'0 0.0
2015-Mar-19 17:33N 53°44' W 000°16'0 0.4
2015-Mar-19 16:33N 53°44' W 000°16'3 3.0
2015-Mar-19 15:33N 53°42' W 000°14'12 9.7
2015-Mar-19 14:20N 53°36' E 000°03'810.5
2015-Mar-19 13:34N 53°35' E 000°17'5 5.3
2015-Mar-19 12:33N 53°37' E 000°25'0 0.1
2015-Mar-19 09:22N 53°37' E 000°25'0 0.0
2015-Mar-19 08:10N 53°37' E 000°25'0 0.1
2015-Mar-19 06:31N 53°37' E 000°25'0 0.1
2015-Mar-19 05:31N 53°37' E 000°25'0 0.0
2015-Mar-19 03:13N 53°37' E 000°25'0 0.0
2015-Mar-19 02:31N 53°37' E 000°25'0 0.0
2015-Mar-19 01:28N 53°37' E 000°25'0 0.0
2015-Mar-19 00:31N 53°37' E 000°25'0 0.0
2015-Mar-18 20:27N 53°37' E 000°25'6 6.1
2015-Mar-18 19:28N 53°43' E 000°25'1611.9
2015-Mar-18 18:07N 53°59' E 000°26'712.9
2015-Mar-18 17:33N 54°06' E 000°28'1313.3
2015-Mar-18 16:33N 54°19' E 000°31'1613.7
2015-Mar-18 15:24N 54°35' E 000°34'27012.6
2015-Mar-17 18:00N 59°00' E 002°06'14211.8 140 / 211033.0 1.1 2.5 7.0 7.0
2015-Mar-17 06:00N 61°18' E 003°12'13711.4 140 / 161037.910.8 2.0 7.0 7.0
2015-Mar-16 18:00N 63°30' E 004°30'   230 / 161040.010.8 2.5 8.0 7.0
Track history (hours):
 
Tides and Currents Weather Stations Pressure Air Temp Water Temp Dewpoint Dewpoint Depression Visibility Wind Speed Wind Dir Waves Ship Positions

Zapolyarye

Last reported at 2015-Mar-25 18:00 UTC. Time now 2015-Apr-01 05:51 UTC.
Position N 71°06' E 029°24'.

Length 181 m; draft 6.8 m.

Type: Cargo ship. MMSI: 273338310.

Wind from 190 at 6 knots

Waves 1.0 meters (3 feet), 2 second period

Barometer 1015.2 mb
Air temperature -3.0 ° C
Visibility: greater than 10.8 NM
Water temperature 3.0 ° C

Date/timePositionNaut miles runAvg speedWind from/ knotsBaromVisibWave heightAir tempDewpointWater temp
2015-Mar-25 18:00N 71°06' E 029°24'16113.4 190 / 61015.210.8 1.0-3.0 3.0
2015-Mar-25 06:00N 71°06' E 021°06'45812.7 200 / 191011.9 5.4 1.5-1.0 5.0
2015-Mar-23 18:00N 65°30' E 007°06'15512.9 340 / 23992.2 5.4 2.0 5.0 6.0
2015-Mar-23 06:00N 63°12' E 004°24'17414.5 200 / 25990.0 5.4 2.0 7.0 7.0
2015-Mar-22 18:00N 60°18' E 004°06'17714.7 200 / 191013.5 0.5 1.5 7.0 6.0
2015-Mar-22 06:00N 57°24' E 003°06'19311.7 230 / 191028.010.8 1.5 5.0 6.0
2015-Mar-21 13:33N 54°29' E 000°43'1110.7
2015-Mar-21 12:34N 54°19' E 000°37'9 9.2
2015-Mar-21 11:33N 54°10' E 000°33'8 7.6
2015-Mar-21 10:34N 54°03' E 000°29'8 8.4
2015-Mar-21 09:33N 53°55' E 000°24'1312.7
2015-Mar-21 08:33N 53°42' E 000°23'1211.9
2015-Mar-21 07:33N 53°32' E 000°11'1313.5
2015-Mar-21 06:33N 53°38' W 000°09'8 7.7
2015-Mar-21 05:34N 53°45' W 000°16'0 0.3
2015-Mar-21 04:33N 53°44' W 000°16'0 0.0
2015-Mar-21 03:33N 53°44' W 000°16'0 0.0
2015-Mar-21 02:33N 53°44' W 000°16'0 0.0
2015-Mar-21 01:33N 53°44' W 000°16'0 0.0
2015-Mar-21 00:33N 53°44' W 000°16'0 0.0
2015-Mar-20 23:33N 53°44' W 000°16'0 0.0
2015-Mar-20 22:33N 53°44' W 000°16'0 0.0
2015-Mar-20 21:30N 53°44' W 000°16'0 0.0
2015-Mar-20 20:33N 53°44' W 000°16'0 0.0
2015-Mar-20 19:33N 53°44' W 000°16'0 0.0
2015-Mar-20 18:33N 53°44' W 000°16'0 0.0
2015-Mar-20 17:33N 53°44' W 000°16'0 0.0
2015-Mar-20 16:33N 53°44' W 000°16'0 0.0
2015-Mar-20 15:33N 53°44' W 000°16'0 0.0
2015-Mar-20 14:33N 53°44' W 000°16'0 0.0
2015-Mar-20 13:33N 53°44' W 000°16'0 0.0
2015-Mar-20 12:33N 53°44' W 000°16'0 0.0
2015-Mar-20 11:33N 53°44' W 000°16'0 0.0
2015-Mar-20 10:33N 53°44' W 000°16'0 0.0
2015-Mar-20 09:33N 53°44' W 000°16'0 0.0
2015-Mar-20 08:34N 53°44' W 000°16'0 0.0
2015-Mar-20 07:33N 53°44' W 000°16'0 0.0
2015-Mar-20 06:30N 53°44' W 000°16'0 0.0
2015-Mar-20 05:30N 53°44' W 000°16'0 0.0
2015-Mar-20 04:33N 53°44' W 000°16'0 0.0
2015-Mar-20 03:33N 53°44' W 000°16'0 0.0
2015-Mar-20 02:30N 53°44' W 000°16'0 0.0
2015-Mar-20 01:33N 53°44' W 000°16'0 0.0
2015-Mar-20 00:33N 53°44' W 000°16'0 0.0
2015-Mar-19 23:33N 53°44' W 000°16'0 0.0
2015-Mar-19 22:33N 53°44' W 000°16'0 0.0
2015-Mar-19 21:33N 53°44' W 000°16'0 0.0
2015-Mar-19 20:33N 53°44' W 000°16'0 0.0
2015-Mar-19 19:33N 53°44' W 000°16'0 0.0
2015-Mar-19 18:33N 53°44' W 000°16'0 0.0
2015-Mar-19 17:33N 53°44' W 000°16'0 0.4
2015-Mar-19 16:33N 53°44' W 000°16'3 3.0
2015-Mar-19 15:33N 53°42' W 000°14'12 9.7
2015-Mar-19 14:20N 53°36' E 000°03'810.5
2015-Mar-19 13:34N 53°35' E 000°17'5 5.3
2015-Mar-19 12:33N 53°37' E 000°25'0 0.1
2015-Mar-19 09:22N 53°37' E 000°25'0 0.0
2015-Mar-19 08:10N 53°37' E 000°25'0 0.1
2015-Mar-19 06:31N 53°37' E 000°25'0 0.1
2015-Mar-19 05:31N 53°37' E 000°25'0 0.0
2015-Mar-19 03:13N 53°37' E 000°25'0 0.0
2015-Mar-19 02:31N 53°37' E 000°25'0 0.0
2015-Mar-19 01:28N 53°37' E 000°25'0 0.0
2015-Mar-19 00:31N 53°37' E 000°25'0 0.0
2015-Mar-18 20:27N 53°37' E 000°25'6 6.1
2015-Mar-18 19:28N 53°43' E 000°25'1611.9
2015-Mar-18 18:07N 53°59' E 000°26'712.9
2015-Mar-18 17:33N 54°06' E 000°28'1313.3
2015-Mar-18 16:33N 54°19' E 000°31'1613.7
2015-Mar-18 15:24N 54°35' E 000°34'27012.6
2015-Mar-17 18:00N 59°00' E 002°06'14211.8 140 / 211033.0 1.1 2.5 7.0 7.0
2015-Mar-17 06:00N 61°18' E 003°12'13711.4 140 / 161037.910.8 2.0 7.0 7.0
2015-Mar-16 18:00N 63°30' E 004°30'   230 / 161040.010.8 2.5 8.0 7.0

Dump ship's entire track history